sensor_id;sensor_type;location;lat;lon;timestamp;P1;durP1;ratioP1;P2;durP2;ratioP2
63018;SDS011;49105;46.046;10.760;2023-08-06T00:00:16;1.65;;;1.65;;
63018;SDS011;49105;46.046;10.760;2023-08-06T00:02:42;1.70;;;1.70;;
63018;SDS011;49105;46.046;10.760;2023-08-06T00:05:07;1.65;;;1.65;;
63018;SDS011;49105;46.046;10.760;2023-08-06T00:07:39;1.70;;;1.70;;
63018;SDS011;49105;46.046;10.760;2023-08-06T00:10:16;1.80;;;1.80;;
63018;SDS011;49105;46.046;10.760;2023-08-06T00:12:48;1.80;;;1.80;;
63018;SDS011;49105;46.046;10.760;2023-08-06T00:15:18;1.90;;;1.90;;
63018;SDS011;49105;46.046;10.760;2023-08-06T00:17:50;2.00;;;2.00;;
63018;SDS011;49105;46.046;10.760;2023-08-06T00:20:18;1.90;;;1.90;;
63018;SDS011;49105;46.046;10.760;2023-08-06T00:22:46;1.80;;;1.80;;
63018;SDS011;49105;46.046;10.760;2023-08-06T00:25:12;1.80;;;1.80;;
63018;SDS011;49105;46.046;10.760;2023-08-06T00:27:37;1.88;;;1.88;;
63018;SDS011;49105;46.046;10.760;2023-08-06T00:30:07;1.92;;;1.92;;
63018;SDS011;49105;46.046;10.760;2023-08-06T00:32:39;1.80;;;1.80;;
63018;SDS011;49105;46.046;10.760;2023-08-06T00:35:08;2.00;;;2.00;;
63018;SDS011;49105;46.046;10.760;2023-08-06T00:37:33;1.75;;;1.75;;
63018;SDS011;49105;46.046;10.760;2023-08-06T00:39:59;1.98;;;1.98;;
63018;SDS011;49105;46.046;10.760;2023-08-06T00:42:24;1.90;;;1.90;;
63018;SDS011;49105;46.046;10.760;2023-08-06T00:44:52;2.40;;;2.30;;
63018;SDS011;49105;46.046;10.760;2023-08-06T00:47:27;1.80;;;1.80;;
63018;SDS011;49105;46.046;10.760;2023-08-06T00:49:53;1.80;;;1.80;;
63018;SDS011;49105;46.046;10.760;2023-08-06T00:52:19;1.77;;;1.77;;
63018;SDS011;49105;46.046;10.760;2023-08-06T00:54:57;1.80;;;1.80;;
63018;SDS011;49105;46.046;10.760;2023-08-06T00:57:34;1.80;;;1.80;;
63018;SDS011;49105;46.046;10.760;2023-08-06T01:00:09;2.05;;;2.05;;
63018;SDS011;49105;46.046;10.760;2023-08-06T01:02:35;1.80;;;1.80;;
63018;SDS011;49105;46.046;10.760;2023-08-06T01:05:08;1.70;;;1.70;;
63018;SDS011;49105;46.046;10.760;2023-08-06T01:11:38;1.90;;;1.90;;
63018;SDS011;49105;46.046;10.760;2023-08-06T01:13:51;1.80;;;1.80;;
63018;SDS011;49105;46.046;10.760;2023-08-06T01:19:19;1.88;;;1.88;;
63018;SDS011;49105;46.046;10.760;2023-08-06T01:21:46;1.90;;;1.90;;
63018;SDS011;49105;46.046;10.760;2023-08-06T01:24:17;1.80;;;1.80;;
63018;SDS011;49105;46.046;10.760;2023-08-06T01:26:59;2.20;;;2.20;;
63018;SDS011;49105;46.046;10.760;2023-08-06T01:29:39;1.80;;;1.80;;
63018;SDS011;49105;46.046;10.760;2023-08-06T01:32:09;1.92;;;1.92;;
63018;SDS011;49105;46.046;10.760;2023-08-06T01:34:40;1.73;;;1.73;;
63018;SDS011;49105;46.046;10.760;2023-08-06T01:37:14;1.80;;;1.80;;
63018;SDS011;49105;46.046;10.760;2023-08-06T01:39:42;1.80;;;1.80;;
63018;SDS011;49105;46.046;10.760;2023-08-06T01:42:14;1.90;;;1.90;;
63018;SDS011;49105;46.046;10.760;2023-08-06T01:44:40;2.28;;;2.08;;
63018;SDS011;49105;46.046;10.760;2023-08-06T01:47:08;5.00;;;2.85;;
63018;SDS011;49105;46.046;10.760;2023-08-06T01:49:40;1.83;;;1.83;;
63018;SDS011;49105;46.046;10.760;2023-08-06T01:52:06;1.80;;;1.80;;
63018;SDS011;49105;46.046;10.760;2023-08-06T01:54:34;2.08;;;2.00;;
63018;SDS011;49105;46.046;10.760;2023-08-06T01:57:00;1.88;;;1.88;;
63018;SDS011;49105;46.046;10.760;2023-08-06T01:59:31;1.80;;;1.80;;
63018;SDS011;49105;46.046;10.760;2023-08-06T02:02:00;1.80;;;1.80;;
63018;SDS011;49105;46.046;10.760;2023-08-06T02:04:25;2.10;;;2.10;;
63018;SDS011;49105;46.046;10.760;2023-08-06T02:06:51;1.90;;;1.90;;
63018;SDS011;49105;46.046;10.760;2023-08-06T02:09:22;1.90;;;1.90;;
63018;SDS011;49105;46.046;10.760;2023-08-06T02:11:48;1.80;;;1.80;;
63018;SDS011;49105;46.046;10.760;2023-08-06T02:14:14;2.10;;;2.10;;
63018;SDS011;49105;46.046;10.760;2023-08-06T02:16:39;1.90;;;1.90;;
63018;SDS011;49105;46.046;10.760;2023-08-06T02:19:08;1.90;;;1.90;;
63018;SDS011;49105;46.046;10.760;2023-08-06T02:21:33;1.92;;;1.92;;
63018;SDS011;49105;46.046;10.760;2023-08-06T02:23:59;2.00;;;2.00;;
63018;SDS011;49105;46.046;10.760;2023-08-06T02:26:30;2.10;;;2.10;;
63018;SDS011;49105;46.046;10.760;2023-08-06T02:34:46;2.10;;;2.10;;
63018;SDS011;49105;46.046;10.760;2023-08-06T02:37:24;1.90;;;1.90;;
63018;SDS011;49105;46.046;10.760;2023-08-06T02:39:58;1.90;;;1.90;;
63018;SDS011;49105;46.046;10.760;2023-08-06T02:42:33;1.90;;;1.90;;
63018;SDS011;49105;46.046;10.760;2023-08-06T02:44:59;1.92;;;1.92;;
63018;SDS011;49105;46.046;10.760;2023-08-06T02:47:24;1.90;;;1.90;;
63018;SDS011;49105;46.046;10.760;2023-08-06T02:50:02;1.90;;;1.90;;
63018;SDS011;49105;46.046;10.760;2023-08-06T02:52:33;2.30;;;2.20;;
63018;SDS011;49105;46.046;10.760;2023-08-06T02:55:08;1.70;;;1.70;;
63018;SDS011;49105;46.046;10.760;2023-08-06T02:57:33;1.80;;;1.80;;
63018;SDS011;49105;46.046;10.760;2023-08-06T03:02:43;1.90;;;1.90;;
63018;SDS011;49105;46.046;10.760;2023-08-06T03:05:14;2.00;;;2.00;;
63018;SDS011;49105;46.046;10.760;2023-08-06T03:10:08;2.00;;;2.00;;
63018;SDS011;49105;46.046;10.760;2023-08-06T03:12:37;1.70;;;1.70;;
63018;SDS011;49105;46.046;10.760;2023-08-06T03:15:09;1.75;;;1.75;;
63018;SDS011;49105;46.046;10.760;2023-08-06T03:17:44;1.70;;;1.70;;
63018;SDS011;49105;46.046;10.760;2023-08-06T03:20:09;1.80;;;1.80;;
63018;SDS011;49105;46.046;10.760;2023-08-06T03:22:41;2.20;;;2.10;;
63018;SDS011;49105;46.046;10.760;2023-08-06T03:25:07;1.83;;;1.83;;
63018;SDS011;49105;46.046;10.760;2023-08-06T03:27:38;1.80;;;1.80;;
63018;SDS011;49105;46.046;10.760;2023-08-06T03:30:13;3.00;;;2.58;;
63018;SDS011;49105;46.046;10.760;2023-08-06T03:32:45;1.90;;;1.90;;
63018;SDS011;49105;46.046;10.760;2023-08-06T03:35:12;2.13;;;2.13;;
63018;SDS011;49105;46.046;10.760;2023-08-06T03:37:46;1.90;;;1.90;;
63018;SDS011;49105;46.046;10.760;2023-08-06T03:40:21;2.00;;;2.00;;
63018;SDS011;49105;46.046;10.760;2023-08-06T03:42:46;2.00;;;2.00;;
63018;SDS011;49105;46.046;10.760;2023-08-06T03:45:19;1.90;;;1.90;;
63018;SDS011;49105;46.046;10.760;2023-08-06T03:47:44;1.85;;;1.85;;
63018;SDS011;49105;46.046;10.760;2023-08-06T03:50:13;1.80;;;1.80;;
63018;SDS011;49105;46.046;10.760;2023-08-06T03:52:38;1.80;;;1.80;;
63018;SDS011;49105;46.046;10.760;2023-08-06T03:55:07;2.00;;;2.00;;
63018;SDS011;49105;46.046;10.760;2023-08-06T03:57:43;2.15;;;2.15;;
63018;SDS011;49105;46.046;10.760;2023-08-06T04:00:12;1.90;;;1.90;;
63018;SDS011;49105;46.046;10.760;2023-08-06T04:02:43;1.80;;;1.80;;
63018;SDS011;49105;46.046;10.760;2023-08-06T04:08:31;1.80;;;1.80;;
63018;SDS011;49105;46.046;10.760;2023-08-06T04:10:57;1.80;;;1.80;;
63018;SDS011;49105;46.046;10.760;2023-08-06T04:13:28;2.42;;;2.22;;
63018;SDS011;49105;46.046;10.760;2023-08-06T04:15:54;2.00;;;2.00;;
63018;SDS011;49105;46.046;10.760;2023-08-06T04:18:29;2.13;;;2.13;;
63018;SDS011;49105;46.046;10.760;2023-08-06T04:20:54;2.05;;;2.05;;
63018;SDS011;49105;46.046;10.760;2023-08-06T04:23:28;1.90;;;1.90;;
63018;SDS011;49105;46.046;10.760;2023-08-06T04:26:06;1.98;;;1.98;;
63018;SDS011;49105;46.046;10.760;2023-08-06T04:28:37;2.00;;;2.00;;
63018;SDS011;49105;46.046;10.760;2023-08-06T04:31:09;1.80;;;1.80;;
63018;SDS011;49105;46.046;10.760;2023-08-06T04:33:37;1.70;;;1.70;;
63018;SDS011;49105;46.046;10.760;2023-08-06T04:36:07;1.90;;;1.90;;
63018;SDS011;49105;46.046;10.760;2023-08-06T04:38:43;1.77;;;1.77;;
63018;SDS011;49105;46.046;10.760;2023-08-06T04:41:10;1.90;;;1.90;;
63018;SDS011;49105;46.046;10.760;2023-08-06T04:43:36;1.70;;;1.70;;
63018;SDS011;49105;46.046;10.760;2023-08-06T04:46:02;1.70;;;1.70;;
63018;SDS011;49105;46.046;10.760;2023-08-06T04:48:27;1.80;;;1.80;;
63018;SDS011;49105;46.046;10.760;2023-08-06T04:50:53;1.90;;;1.90;;
63018;SDS011;49105;46.046;10.760;2023-08-06T04:53:28;1.73;;;1.73;;
63018;SDS011;49105;46.046;10.760;2023-08-06T04:56:03;2.00;;;2.00;;
63018;SDS011;49105;46.046;10.760;2023-08-06T04:58:28;1.85;;;1.85;;
63018;SDS011;49105;46.046;10.760;2023-08-06T05:01:00;2.10;;;2.10;;
63018;SDS011;49105;46.046;10.760;2023-08-06T05:03:25;1.70;;;1.70;;
63018;SDS011;49105;46.046;10.760;2023-08-06T05:05:59;1.73;;;1.73;;
63018;SDS011;49105;46.046;10.760;2023-08-06T05:08:25;1.70;;;1.70;;
63018;SDS011;49105;46.046;10.760;2023-08-06T05:10:56;1.70;;;1.70;;
63018;SDS011;49105;46.046;10.760;2023-08-06T05:13:22;1.52;;;1.52;;
63018;SDS011;49105;46.046;10.760;2023-08-06T05:15:53;1.70;;;1.70;;
63018;SDS011;49105;46.046;10.760;2023-08-06T05:18:25;2.08;;;2.08;;
63018;SDS011;49105;46.046;10.760;2023-08-06T05:20:51;1.70;;;1.70;;
63018;SDS011;49105;46.046;10.760;2023-08-06T05:23:16;2.10;;;2.00;;
63018;SDS011;49105;46.046;10.760;2023-08-06T05:25:48;1.80;;;1.80;;
63018;SDS011;49105;46.046;10.760;2023-08-06T05:28:23;1.80;;;1.80;;
63018;SDS011;49105;46.046;10.760;2023-08-06T05:30:48;1.77;;;1.77;;
63018;SDS011;49105;46.046;10.760;2023-08-06T05:33:22;1.70;;;1.70;;
63018;SDS011;49105;46.046;10.760;2023-08-06T05:35:49;1.60;;;1.60;;
63018;SDS011;49105;46.046;10.760;2023-08-06T05:38:16;1.80;;;1.80;;
63018;SDS011;49105;46.046;10.760;2023-08-06T05:40:42;1.70;;;1.70;;
63018;SDS011;49105;46.046;10.760;2023-08-06T05:46:29;1.90;;;1.90;;
63018;SDS011;49105;46.046;10.760;2023-08-06T05:48:54;1.70;;;1.70;;
63018;SDS011;49105;46.046;10.760;2023-08-06T05:51:29;1.50;;;1.50;;
63018;SDS011;49105;46.046;10.760;2023-08-06T05:54:04;1.60;;;1.60;;
63018;SDS011;49105;46.046;10.760;2023-08-06T05:56:36;1.60;;;1.60;;
63018;SDS011;49105;46.046;10.760;2023-08-06T05:59:02;2.40;;;2.30;;
63018;SDS011;49105;46.046;10.760;2023-08-06T06:01:34;1.50;;;1.50;;
63018;SDS011;49105;46.046;10.760;2023-08-06T06:04:05;1.60;;;1.60;;
63018;SDS011;49105;46.046;10.760;2023-08-06T06:06:31;1.75;;;1.75;;
63018;SDS011;49105;46.046;10.760;2023-08-06T06:08:56;1.33;;;1.33;;
63018;SDS011;49105;46.046;10.760;2023-08-06T06:11:28;1.50;;;1.50;;
63018;SDS011;49105;46.046;10.760;2023-08-06T06:13:56;1.60;;;1.60;;
63018;SDS011;49105;46.046;10.760;2023-08-06T06:16:33;1.50;;;1.50;;
63018;SDS011;49105;46.046;10.760;2023-08-06T06:19:11;1.50;;;1.50;;
63018;SDS011;49105;46.046;10.760;2023-08-06T06:21:49;1.30;;;1.30;;
63018;SDS011;49105;46.046;10.760;2023-08-06T06:24:24;1.30;;;1.30;;
63018;SDS011;49105;46.046;10.760;2023-08-06T06:26:50;1.40;;;1.40;;
63018;SDS011;49105;46.046;10.760;2023-08-06T06:29:15;1.20;;;1.20;;
63018;SDS011;49105;46.046;10.760;2023-08-06T06:31:47;1.10;;;1.10;;
63018;SDS011;49105;46.046;10.760;2023-08-06T06:34:18;1.30;;;1.30;;
63018;SDS011;49105;46.046;10.760;2023-08-06T06:36:50;2.38;;;1.65;;
63018;SDS011;49105;46.046;10.760;2023-08-06T06:41:56;1.20;;;1.20;;
63018;SDS011;49105;46.046;10.760;2023-08-06T06:44:22;1.20;;;1.20;;
63018;SDS011;49105;46.046;10.760;2023-08-06T06:46:47;1.30;;;1.30;;
63018;SDS011;49105;46.046;10.760;2023-08-06T06:49:25;1.65;;;1.65;;
63018;SDS011;49105;46.046;10.760;2023-08-06T06:51:57;1.30;;;1.30;;
63018;SDS011;49105;46.046;10.760;2023-08-06T06:54:23;1.40;;;1.40;;
63018;SDS011;49105;46.046;10.760;2023-08-06T06:56:48;1.50;;;1.50;;
63018;SDS011;49105;46.046;10.760;2023-08-06T06:59:22;1.40;;;1.40;;
63018;SDS011;49105;46.046;10.760;2023-08-06T07:01:51;1.30;;;1.30;;
63018;SDS011;49105;46.046;10.760;2023-08-06T07:04:23;1.30;;;1.30;;
63018;SDS011;49105;46.046;10.760;2023-08-06T07:09:32;1.40;;;1.40;;
63018;SDS011;49105;46.046;10.760;2023-08-06T07:11:58;1.42;;;1.42;;
63018;SDS011;49105;46.046;10.760;2023-08-06T07:14:29;1.30;;;1.30;;
63018;SDS011;49105;46.046;10.760;2023-08-06T07:16:55;1.30;;;1.30;;
63018;SDS011;49105;46.046;10.760;2023-08-06T07:19:23;1.13;;;1.13;;
63018;SDS011;49105;46.046;10.760;2023-08-06T07:22:04;1.23;;;1.23;;
63018;SDS011;49105;46.046;10.760;2023-08-06T07:24:39;1.80;;;1.70;;
63018;SDS011;49105;46.046;10.760;2023-08-06T07:27:12;1.83;;;1.60;;
63018;SDS011;49105;46.046;10.760;2023-08-06T07:29:47;1.10;;;1.10;;
63018;SDS011;49105;46.046;10.760;2023-08-06T07:32:21;1.40;;;1.38;;
63018;SDS011;49105;46.046;10.760;2023-08-06T07:34:53;1.17;;;1.17;;
63018;SDS011;49105;46.046;10.760;2023-08-06T07:37:25;1.10;;;1.10;;
63018;SDS011;49105;46.046;10.760;2023-08-06T07:39:59;1.20;;;1.20;;
63018;SDS011;49105;46.046;10.760;2023-08-06T07:42:34;1.20;;;1.20;;
63018;SDS011;49105;46.046;10.760;2023-08-06T07:44:59;1.40;;;1.40;;
63018;SDS011;49105;46.046;10.760;2023-08-06T07:47:34;1.20;;;1.20;;
63018;SDS011;49105;46.046;10.760;2023-08-06T07:50:06;1.20;;;1.20;;
63018;SDS011;49105;46.046;10.760;2023-08-06T07:52:38;1.20;;;1.20;;
63018;SDS011;49105;46.046;10.760;2023-08-06T07:55:12;1.23;;;1.23;;
63018;SDS011;49105;46.046;10.760;2023-08-06T07:57:44;1.30;;;1.30;;
63018;SDS011;49105;46.046;10.760;2023-08-06T08:00:09;2.90;;;1.50;;
63018;SDS011;49105;46.046;10.760;2023-08-06T08:02:35;1.40;;;1.40;;
63018;SDS011;49105;46.046;10.760;2023-08-06T08:05:00;1.40;;;1.40;;
63018;SDS011;49105;46.046;10.760;2023-08-06T08:07:33;1.30;;;1.30;;
63018;SDS011;49105;46.046;10.760;2023-08-06T08:09:59;1.25;;;1.25;;
63018;SDS011;49105;46.046;10.760;2023-08-06T08:12:24;1.20;;;1.20;;
63018;SDS011;49105;46.046;10.760;2023-08-06T08:14:59;1.63;;;1.63;;
63018;SDS011;49105;46.046;10.760;2023-08-06T08:17:24;1.30;;;1.30;;
63018;SDS011;49105;46.046;10.760;2023-08-06T08:19:56;1.70;;;1.30;;
63018;SDS011;49105;46.046;10.760;2023-08-06T08:22:21;1.35;;;1.35;;
63018;SDS011;49105;46.046;10.760;2023-08-06T08:24:56;1.67;;;1.67;;
63018;SDS011;49105;46.046;10.760;2023-08-06T08:27:22;3.70;;;2.65;;
63018;SDS011;49105;46.046;10.760;2023-08-06T08:29:50;1.67;;;1.67;;
63018;SDS011;49105;46.046;10.760;2023-08-06T08:32:24;1.70;;;1.70;;
63018;SDS011;49105;46.046;10.760;2023-08-06T08:34:56;1.70;;;1.70;;
63018;SDS011;49105;46.046;10.760;2023-08-06T08:37:25;1.60;;;1.60;;
63018;SDS011;49105;46.046;10.760;2023-08-06T08:39:50;1.70;;;1.70;;
63018;SDS011;49105;46.046;10.760;2023-08-06T08:42:23;1.70;;;1.70;;
63018;SDS011;49105;46.046;10.760;2023-08-06T08:44:55;1.58;;;1.50;;
63018;SDS011;49105;46.046;10.760;2023-08-06T08:47:27;1.70;;;1.70;;
63018;SDS011;49105;46.046;10.760;2023-08-06T08:50:02;1.60;;;1.60;;
63018;SDS011;49105;46.046;10.760;2023-08-06T08:52:36;1.60;;;1.60;;
63018;SDS011;49105;46.046;10.760;2023-08-06T08:55:03;1.60;;;1.60;;
63018;SDS011;49105;46.046;10.760;2023-08-06T09:00:52;1.50;;;1.50;;
63018;SDS011;49105;46.046;10.760;2023-08-06T09:03:21;1.58;;;1.58;;
63018;SDS011;49105;46.046;10.760;2023-08-06T09:05:53;1.50;;;1.50;;
63018;SDS011;49105;46.046;10.760;2023-08-06T09:08:24;1.50;;;1.50;;
63018;SDS011;49105;46.046;10.760;2023-08-06T09:11:05;1.50;;;1.50;;
63018;SDS011;49105;46.046;10.760;2023-08-06T09:13:36;1.60;;;1.60;;
63018;SDS011;49105;46.046;10.760;2023-08-06T09:16:08;1.60;;;1.60;;
63018;SDS011;49105;46.046;10.760;2023-08-06T09:18:37;1.50;;;1.50;;
63018;SDS011;49105;46.046;10.760;2023-08-06T09:21:04;1.50;;;1.50;;
63018;SDS011;49105;46.046;10.760;2023-08-06T09:23:39;1.50;;;1.50;;
63018;SDS011;49105;46.046;10.760;2023-08-06T09:26:05;1.60;;;1.60;;
63018;SDS011;49105;46.046;10.760;2023-08-06T09:28:37;1.40;;;1.40;;
63018;SDS011;49105;46.046;10.760;2023-08-06T09:31:14;1.60;;;1.60;;
63018;SDS011;49105;46.046;10.760;2023-08-06T09:33:39;1.80;;;1.80;;
63018;SDS011;49105;46.046;10.760;2023-08-06T09:36:11;1.60;;;1.60;;
63018;SDS011;49105;46.046;10.760;2023-08-06T09:38:42;1.45;;;1.45;;
63018;SDS011;49105;46.046;10.760;2023-08-06T09:41:25;1.48;;;1.48;;
63018;SDS011;49105;46.046;10.760;2023-08-06T09:44:02;1.65;;;1.58;;
63018;SDS011;49105;46.046;10.760;2023-08-06T09:46:28;1.40;;;1.40;;
63018;SDS011;49105;46.046;10.760;2023-08-06T09:48:56;2.78;;;1.40;;
63018;SDS011;49105;46.046;10.760;2023-08-06T09:51:31;1.70;;;1.60;;
63018;SDS011;49105;46.046;10.760;2023-08-06T09:54:02;1.50;;;1.50;;
63018;SDS011;49105;46.046;10.760;2023-08-06T09:56:29;1.67;;;1.67;;
63018;SDS011;49105;46.046;10.760;2023-08-06T09:59:04;1.40;;;1.40;;
63018;SDS011;49105;46.046;10.760;2023-08-06T10:01:39;1.50;;;1.50;;
63018;SDS011;49105;46.046;10.760;2023-08-06T10:04:17;1.50;;;1.50;;
63018;SDS011;49105;46.046;10.760;2023-08-06T10:06:46;1.50;;;1.50;;
63018;SDS011;49105;46.046;10.760;2023-08-06T10:09:16;1.45;;;1.45;;
63018;SDS011;49105;46.046;10.760;2023-08-06T10:11:51;1.50;;;1.50;;
63018;SDS011;49105;46.046;10.760;2023-08-06T10:14:32;1.50;;;1.50;;
63018;SDS011;49105;46.046;10.760;2023-08-06T10:17:09;1.50;;;1.50;;
63018;SDS011;49105;46.046;10.760;2023-08-06T10:19:44;1.40;;;1.40;;
63018;SDS011;49105;46.046;10.760;2023-08-06T10:22:13;1.55;;;1.55;;
63018;SDS011;49105;46.046;10.760;2023-08-06T10:24:56;1.50;;;1.50;;
63018;SDS011;49105;46.046;10.760;2023-08-06T10:27:23;1.40;;;1.40;;
63018;SDS011;49105;46.046;10.760;2023-08-06T10:32:53;1.50;;;1.50;;
63018;SDS011;49105;46.046;10.760;2023-08-06T10:43:35;1.40;;;1.40;;
63018;SDS011;49105;46.046;10.760;2023-08-06T10:46:11;1.20;;;1.20;;
63018;SDS011;49105;46.046;10.760;2023-08-06T10:48:48;1.20;;;1.20;;
63018;SDS011;49105;46.046;10.760;2023-08-06T10:51:23;1.40;;;1.40;;
63018;SDS011;49105;46.046;10.760;2023-08-06T10:54:00;1.50;;;1.50;;
63018;SDS011;49105;46.046;10.760;2023-08-06T10:56:39;1.60;;;1.60;;
63018;SDS011;49105;46.046;10.760;2023-08-06T10:59:08;1.40;;;1.40;;
63018;SDS011;49105;46.046;10.760;2023-08-06T11:01:41;1.40;;;1.40;;
63018;SDS011;49105;46.046;10.760;2023-08-06T11:04:15;1.42;;;1.42;;
63018;SDS011;49105;46.046;10.760;2023-08-06T11:06:45;1.30;;;1.30;;
63018;SDS011;49105;46.046;10.760;2023-08-06T11:09:27;1.63;;;1.63;;
63018;SDS011;49105;46.046;10.760;2023-08-06T11:11:52;1.65;;;1.65;;
63018;SDS011;49105;46.046;10.760;2023-08-06T11:14:30;1.40;;;1.40;;
63018;SDS011;49105;46.046;10.760;2023-08-06T11:17:02;1.48;;;1.48;;
63018;SDS011;49105;46.046;10.760;2023-08-06T11:19:27;2.40;;;1.50;;
63018;SDS011;49105;46.046;10.760;2023-08-06T11:21:54;1.42;;;1.42;;
63018;SDS011;49105;46.046;10.760;2023-08-06T11:24:28;1.40;;;1.40;;
63018;SDS011;49105;46.046;10.760;2023-08-06T11:27:02;1.73;;;1.63;;
63018;SDS011;49105;46.046;10.760;2023-08-06T11:29:45;1.45;;;1.45;;
63018;SDS011;49105;46.046;10.760;2023-08-06T11:32:20;1.50;;;1.50;;
63018;SDS011;49105;46.046;10.760;2023-08-06T11:34:45;1.40;;;1.40;;
63018;SDS011;49105;46.046;10.760;2023-08-06T11:37:11;1.50;;;1.50;;
63018;SDS011;49105;46.046;10.760;2023-08-06T11:39:46;1.50;;;1.50;;
63018;SDS011;49105;46.046;10.760;2023-08-06T11:42:18;1.40;;;1.40;;
63018;SDS011;49105;46.046;10.760;2023-08-06T11:44:52;1.40;;;1.40;;
63018;SDS011;49105;46.046;10.760;2023-08-06T11:47:21;1.45;;;1.45;;
63018;SDS011;49105;46.046;10.760;2023-08-06T11:49:56;2.05;;;1.77;;
63018;SDS011;49105;46.046;10.760;2023-08-06T11:52:27;1.60;;;1.60;;
63018;SDS011;49105;46.046;10.760;2023-08-06T11:57:31;1.20;;;1.20;;
63018;SDS011;49105;46.046;10.760;2023-08-06T12:00:01;1.23;;;1.23;;
63018;SDS011;49105;46.046;10.760;2023-08-06T12:07:55;1.30;;;1.30;;
63018;SDS011;49105;46.046;10.760;2023-08-06T12:13:44;1.40;;;1.40;;
63018;SDS011;49105;46.046;10.760;2023-08-06T12:16:09;1.20;;;1.20;;
63018;SDS011;49105;46.046;10.760;2023-08-06T12:18:35;1.33;;;1.33;;
63018;SDS011;49105;46.046;10.760;2023-08-06T12:21:10;1.30;;;1.30;;
63018;SDS011;49105;46.046;10.760;2023-08-06T12:23:35;1.33;;;1.33;;
63018;SDS011;49105;46.046;10.760;2023-08-06T12:26:01;1.20;;;1.20;;
63018;SDS011;49105;46.046;10.760;2023-08-06T12:28:27;1.50;;;1.50;;
63018;SDS011;49105;46.046;10.760;2023-08-06T12:31:01;1.50;;;1.50;;
63018;SDS011;49105;46.046;10.760;2023-08-06T12:33:36;1.40;;;1.40;;
63018;SDS011;49105;46.046;10.760;2023-08-06T12:36:11;1.27;;;1.27;;
63018;SDS011;49105;46.046;10.760;2023-08-06T12:38:43;1.20;;;1.20;;
63018;SDS011;49105;46.046;10.760;2023-08-06T12:41:18;1.20;;;1.20;;
63018;SDS011;49105;46.046;10.760;2023-08-06T12:43:44;1.30;;;1.30;;
63018;SDS011;49105;46.046;10.760;2023-08-06T12:46:18;1.40;;;1.40;;
63018;SDS011;49105;46.046;10.760;2023-08-06T12:48:50;1.20;;;1.20;;
63018;SDS011;49105;46.046;10.760;2023-08-06T12:51:25;1.30;;;1.30;;
63018;SDS011;49105;46.046;10.760;2023-08-06T12:53:56;1.20;;;1.20;;
63018;SDS011;49105;46.046;10.760;2023-08-06T12:56:34;1.20;;;1.20;;
63018;SDS011;49105;46.046;10.760;2023-08-06T12:59:06;1.20;;;1.20;;
63018;SDS011;49105;46.046;10.760;2023-08-06T13:01:31;1.20;;;1.20;;
63018;SDS011;49105;46.046;10.760;2023-08-06T13:04:03;1.30;;;1.30;;
63018;SDS011;49105;46.046;10.760;2023-08-06T13:06:28;1.20;;;1.20;;
63018;SDS011;49105;46.046;10.760;2023-08-06T13:08:55;1.30;;;1.30;;
63018;SDS011;49105;46.046;10.760;2023-08-06T13:11:31;1.30;;;1.30;;
63018;SDS011;49105;46.046;10.760;2023-08-06T13:14:07;1.40;;;1.40;;
63018;SDS011;49105;46.046;10.760;2023-08-06T13:16:43;1.30;;;1.30;;
63018;SDS011;49105;46.046;10.760;2023-08-06T13:19:16;1.33;;;1.33;;
63018;SDS011;49105;46.046;10.760;2023-08-06T13:24:22;1.30;;;1.30;;
63018;SDS011;49105;46.046;10.760;2023-08-06T13:26:47;1.20;;;1.20;;
63018;SDS011;49105;46.046;10.760;2023-08-06T13:29:22;7.32;;;1.60;;
63018;SDS011;49105;46.046;10.760;2023-08-06T13:31:50;1.27;;;1.27;;
63018;SDS011;49105;46.046;10.760;2023-08-06T13:34:25;1.30;;;1.30;;
63018;SDS011;49105;46.046;10.760;2023-08-06T13:36:53;1.30;;;1.30;;
63018;SDS011;49105;46.046;10.760;2023-08-06T13:39:19;1.20;;;1.20;;
63018;SDS011;49105;46.046;10.760;2023-08-06T13:41:56;1.30;;;1.30;;
63018;SDS011;49105;46.046;10.760;2023-08-06T13:44:22;1.83;;;1.83;;
63018;SDS011;49105;46.046;10.760;2023-08-06T13:50:09;1.30;;;1.30;;
63018;SDS011;49105;46.046;10.760;2023-08-06T13:52:44;1.20;;;1.20;;
63018;SDS011;49105;46.046;10.760;2023-08-06T13:55:09;1.20;;;1.20;;
63018;SDS011;49105;46.046;10.760;2023-08-06T13:57:44;1.30;;;1.30;;
63018;SDS011;49105;46.046;10.760;2023-08-06T14:00:15;1.20;;;1.20;;
63018;SDS011;49105;46.046;10.760;2023-08-06T14:02:53;1.30;;;1.30;;
63018;SDS011;49105;46.046;10.760;2023-08-06T14:05:28;1.30;;;1.30;;
63018;SDS011;49105;46.046;10.760;2023-08-06T14:08:02;1.30;;;1.30;;
63018;SDS011;49105;46.046;10.760;2023-08-06T14:10:28;1.85;;;1.75;;
63018;SDS011;49105;46.046;10.760;2023-08-06T14:12:53;1.33;;;1.33;;
63018;SDS011;49105;46.046;10.760;2023-08-06T14:15:25;1.75;;;1.70;;
63018;SDS011;49105;46.046;10.760;2023-08-06T14:20:34;1.30;;;1.30;;
63018;SDS011;49105;46.046;10.760;2023-08-06T14:23:09;1.60;;;1.60;;
63018;SDS011;49105;46.046;10.760;2023-08-06T14:25:45;1.30;;;1.30;;
63018;SDS011;49105;46.046;10.760;2023-08-06T14:28:10;1.30;;;1.30;;
63018;SDS011;49105;46.046;10.760;2023-08-06T14:30:41;1.20;;;1.20;;
63018;SDS011;49105;46.046;10.760;2023-08-06T14:33:13;1.30;;;1.30;;
63018;SDS011;49105;46.046;10.760;2023-08-06T14:35:48;1.33;;;1.33;;
63018;SDS011;49105;46.046;10.760;2023-08-06T14:38:13;1.20;;;1.20;;
63018;SDS011;49105;46.046;10.760;2023-08-06T14:40:45;1.30;;;1.30;;
63018;SDS011;49105;46.046;10.760;2023-08-06T14:43:11;1.40;;;1.40;;
63018;SDS011;49105;46.046;10.760;2023-08-06T14:45:48;1.30;;;1.30;;
63018;SDS011;49105;46.046;10.760;2023-08-06T14:48:17;1.48;;;1.48;;
63018;SDS011;49105;46.046;10.760;2023-08-06T14:50:45;1.27;;;1.27;;
63018;SDS011;49105;46.046;10.760;2023-08-06T14:53:11;1.30;;;1.30;;
63018;SDS011;49105;46.046;10.760;2023-08-06T14:55:44;1.30;;;1.30;;
63018;SDS011;49105;46.046;10.760;2023-08-06T14:58:15;1.40;;;1.40;;
63018;SDS011;49105;46.046;10.760;2023-08-06T15:00:47;1.70;;;1.70;;
63018;SDS011;49105;46.046;10.760;2023-08-06T15:03:18;1.40;;;1.40;;
63018;SDS011;49105;46.046;10.760;2023-08-06T15:05:46;1.50;;;1.50;;
63018;SDS011;49105;46.046;10.760;2023-08-06T15:10:56;1.30;;;1.30;;
63018;SDS011;49105;46.046;10.760;2023-08-06T15:13:23;1.23;;;1.23;;
63018;SDS011;49105;46.046;10.760;2023-08-06T15:15:49;1.30;;;1.30;;
63018;SDS011;49105;46.046;10.760;2023-08-06T15:18:24;1.30;;;1.30;;
63018;SDS011;49105;46.046;10.760;2023-08-06T15:20:49;1.20;;;1.20;;
63018;SDS011;49105;46.046;10.760;2023-08-06T15:26:36;1.30;;;1.30;;
63018;SDS011;49105;46.046;10.760;2023-08-06T15:29:02;1.20;;;1.20;;
63018;SDS011;49105;46.046;10.760;2023-08-06T15:31:35;1.20;;;1.20;;
63018;SDS011;49105;46.046;10.760;2023-08-06T15:34:06;1.20;;;1.20;;
63018;SDS011;49105;46.046;10.760;2023-08-06T15:36:38;1.50;;;1.50;;
63018;SDS011;49105;46.046;10.760;2023-08-06T15:39:07;1.20;;;1.20;;
63018;SDS011;49105;46.046;10.760;2023-08-06T15:41:33;1.73;;;1.70;;
63018;SDS011;49105;46.046;10.760;2023-08-06T15:43:59;1.30;;;1.30;;
63018;SDS011;49105;46.046;10.760;2023-08-06T15:46:27;1.40;;;1.40;;
63018;SDS011;49105;46.046;10.760;2023-08-06T15:48:58;1.30;;;1.30;;
63018;SDS011;49105;46.046;10.760;2023-08-06T15:51:24;1.30;;;1.30;;
63018;SDS011;49105;46.046;10.760;2023-08-06T15:53:49;1.30;;;1.30;;
63018;SDS011;49105;46.046;10.760;2023-08-06T15:56:15;1.40;;;1.40;;
63018;SDS011;49105;46.046;10.760;2023-08-06T15:58:50;1.40;;;1.40;;
63018;SDS011;49105;46.046;10.760;2023-08-06T16:01:23;1.33;;;1.33;;